Time;durP1;ratioP1;P1;durP2;ratioP2;P2;SDS_P1;SDS_P2;PMS_P1;PMS_P2;Temp;Humidity;BMP_temperature;BMP_pressure;BME280_temperature;BME280_humidity;BME280_pressure;Samples;Min_cycle;Max_cycle;Signal;HPM_P1;HPM_P2
2021/11/29 00:01:07;;;;;;;6.15;4.10;;;1.30;99.90;;;;;;5040786;28;20606;-57
2021/11/29 00:03:33;;;;;;;8.30;3.70;;;1.30;99.90;;;;;;5039829;28;20045;-56
2021/11/29 00:05:59;;;;;;;8.32;3.13;;;1.30;99.90;;;;;;5042373;28;20045;-55
2021/11/29 00:08:25;;;;;;;6.30;3.30;;;1.30;99.90;;;;;;5043544;28;20102;-58
2021/11/29 00:10:50;;;;;;;5.30;2.83;;;1.30;99.90;;;;;;5048942;28;20667;-59
2021/11/29 00:13:16;;;;;;;4.10;2.55;;;1.30;99.90;;;;;;5030349;28;20057;-55
2021/11/29 00:15:42;;;;;;;6.38;2.72;;;1.40;99.90;;;;;;5038962;28;20474;-58
2021/11/29 00:18:07;;;;;;;7.00;3.80;;;1.40;99.90;;;;;;5025979;28;20038;-57
2021/11/29 00:20:33;;;;;;;8.30;2.88;;;1.30;99.90;;;;;;5027859;28;21085;-58
2021/11/29 00:22:59;;;;;;;4.13;2.13;;;1.30;99.90;;;;;;5016938;28;20037;-56
2021/11/29 00:25:25;;;;;;;6.30;2.85;;;1.40;99.90;;;;;;5028172;28;20128;-56
2021/11/29 00:27:51;;;;;;;8.88;2.83;;;1.40;99.90;;;;;;5020735;28;20042;-56
2021/11/29 00:30:16;;;;;;;5.85;2.85;;;1.40;99.90;;;;;;5026837;28;20049;-55
2021/11/29 00:32:44;;;;;;;10.40;3.83;;;1.40;99.90;;;;;;5022056;28;20037;-56
2021/11/29 00:35:10;;;;;;;11.40;4.72;;;1.30;99.90;;;;;;5027558;28;20064;-56
2021/11/29 00:37:36;;;;;;;11.00;3.40;;;1.30;99.90;;;;;;5027147;28;20088;-57
2021/11/29 00:40:04;;;;;;;8.88;3.83;;;1.30;99.90;;;;;;5028582;28;20041;-54
2021/11/29 00:42:29;;;;;;;8.55;3.30;;;1.30;99.90;;;;;;5019945;28;20780;-53
2021/11/29 00:44:55;;;;;;;10.45;4.15;;;1.30;99.90;;;;;;5026062;28;20038;-55
2021/11/29 00:47:20;;;;;;;11.10;4.28;;;1.30;99.90;;;;;;5031041;28;20045;-57
2021/11/29 00:49:46;;;;;;;7.53;3.97;;;1.30;99.90;;;;;;5028211;28;20049;-55
2021/11/29 00:52:11;;;;;;;10.50;3.70;;;1.30;99.90;;;;;;5024707;28;20037;-57
2021/11/29 00:54:37;;;;;;;9.07;4.00;;;1.40;99.90;;;;;;5022141;28;20789;-55
2021/11/29 00:57:03;;;;;;;7.88;3.95;;;1.30;99.90;;;;;;5027045;28;20823;-53
2021/11/29 00:59:29;;;;;;;14.13;5.38;;;1.30;99.90;;;;;;5021900;28;20178;-56
2021/11/29 01:01:54;;;;;;;12.63;4.78;;;1.30;99.90;;;;;;5024088;28;20217;-58
2021/11/29 01:04:20;;;;;;;8.50;4.18;;;1.20;99.90;;;;;;5020003;28;20041;-57
2021/11/29 01:06:46;;;;;;;11.57;4.80;;;1.30;99.90;;;;;;5026749;28;20045;-59
2021/11/29 01:09:11;;;;;;;9.98;4.25;;;1.20;99.90;;;;;;5026536;28;20722;-57
2021/11/29 01:11:37;;;;;;;13.00;4.38;;;1.20;99.90;;;;;;5025248;28;20045;-58
2021/11/29 01:14:03;;;;;;;12.93;4.95;;;1.20;99.90;;;;;;5019944;28;20061;-58
2021/11/29 01:16:29;;;;;;;9.23;4.38;;;1.10;99.90;;;;;;5027682;28;20532;-57
2021/11/29 01:18:55;;;;;;;9.23;4.25;;;1.10;99.90;;;;;;5020560;28;20042;-58
2021/11/29 01:21:21;;;;;;;11.82;4.10;;;1.10;99.90;;;;;;5026723;28;20044;-58
2021/11/29 01:23:46;;;;;;;15.63;5.50;;;1.10;99.90;;;;;;5019996;28;20406;-58
2021/11/29 01:26:12;;;;;;;9.73;4.05;;;1.00;99.90;;;;;;5028254;28;20050;-58
2021/11/29 01:28:39;;;;;;;8.57;4.25;;;1.00;99.90;;;;;;5019844;28;20132;-57
2021/11/29 01:31:06;;;;;;;14.05;4.25;;;1.00;99.90;;;;;;5025635;28;20041;-57
2021/11/29 01:33:32;;;;;;;9.40;4.00;;;1.00;99.90;;;;;;5015479;28;20144;-58
2021/11/29 01:35:57;;;;;;;8.88;4.43;;;1.00;99.90;;;;;;5023663;28;20513;-58
2021/11/29 01:38:23;;;;;;;17.95;5.18;;;1.00;99.90;;;;;;5023235;28;20125;-59
2021/11/29 01:40:49;;;;;;;11.85;4.50;;;1.00;99.90;;;;;;5024262;28;20040;-57
2021/11/29 01:43:17;;;;;;;10.70;4.70;;;1.00;99.90;;;;;;5018905;28;20037;-57
2021/11/29 01:45:51;;;;;;;19.38;5.47;;;1.00;99.90;;;;;;5026260;28;20114;-56
2021/11/29 01:48:18;;;;;;;13.48;4.32;;;1.00;99.90;;;;;;5019634;28;20041;-57
2021/11/29 01:50:48;;;;;;;15.18;4.60;;;1.00;99.90;;;;;;5026292;28;20513;-59
2021/11/29 01:53:20;;;;;;;11.15;3.92;;;1.00;99.90;;;;;;5018997;28;20221;-56
2021/11/29 01:55:48;;;;;;;11.77;5.03;;;1.00;99.90;;;;;;5027450;28;20044;-59
2021/11/29 01:58:14;;;;;;;14.18;5.18;;;1.00;99.90;;;;;;5019019;28;20528;-56
2021/11/29 02:00:46;;;;;;;10.52;5.32;;;0.90;99.90;;;;;;5016993;28;20040;-58
2021/11/29 02:03:12;;;;;;;10.70;5.90;;;0.90;99.90;;;;;;4995592;28;20049;-58
2021/11/29 02:05:38;;;;;;;18.33;6.60;;;0.80;99.90;;;;;;5022883;28;20045;-58
2021/11/29 02:08:05;;;;;;;9.63;5.25;;;0.90;99.90;;;;;;5024652;28;20053;-57
2021/11/29 02:10:31;;;;;;;16.48;5.88;;;0.90;99.90;;;;;;5025128;28;20040;-58
2021/11/29 02:12:57;;;;;;;15.60;6.40;;;0.90;99.90;;;;;;5015707;28;20034;-58
2021/11/29 02:15:23;;;;;;;11.27;6.05;;;0.90;99.90;;;;;;5026147;28;20037;-54
2021/11/29 02:17:49;;;;;;;16.38;6.25;;;1.00;99.90;;;;;;5019367;28;20042;-58
2021/11/29 02:20:17;;;;;;;10.02;5.65;;;0.90;99.90;;;;;;5024960;28;20075;-59
2021/11/29 02:22:44;;;;;;;12.63;5.32;;;1.00;99.90;;;;;;5019341;28;20042;-58
2021/11/29 02:25:11;;;;;;;16.08;6.68;;;1.00;99.90;;;;;;5025217;28;20593;-58
2021/11/29 02:27:39;;;;;;;13.18;6.18;;;1.00;99.90;;;;;;5020817;28;20080;-55
2021/11/29 02:30:06;;;;;;;24.13;7.13;;;1.10;99.90;;;;;;5024627;28;20037;-59
2021/11/29 02:32:31;;;;;;;17.95;6.20;;;1.00;99.90;;;;;;5020712;28;20042;-55
2021/11/29 02:34:57;;;;;;;12.50;6.10;;;1.00;99.90;;;;;;5022665;28;20309;-57
2021/11/29 02:37:22;;;;;;;13.00;5.97;;;0.90;99.90;;;;;;5025129;28;20092;-52
2021/11/29 02:39:48;;;;;;;13.68;5.70;;;0.90;99.90;;;;;;5026051;28;20120;-57
2021/11/29 02:42:14;;;;;;;18.02;5.60;;;1.00;99.90;;;;;;5020826;28;20041;-58
2021/11/29 02:44:41;;;;;;;14.68;6.00;;;0.90;99.90;;;;;;5018648;28;20049;-57
2021/11/29 02:47:07;;;;;;;15.48;6.13;;;0.80;99.90;;;;;;5025086;28;20064;-55
2021/11/29 02:49:33;;;;;;;14.85;6.57;;;0.80;99.90;;;;;;5026222;28;20041;-57
2021/11/29 02:52:06;;;;;;;10.85;5.97;;;0.80;99.90;;;;;;5023712;28;20463;-54
2021/11/29 02:54:33;;;;;;;18.60;6.78;;;0.80;99.90;;;;;;5019817;28;20497;-58
2021/11/29 02:57:02;;;;;;;14.60;6.72;;;0.80;99.90;;;;;;5026892;28;20088;-59
2021/11/29 02:59:32;;;;;;;24.77;6.90;;;0.70;99.90;;;;;;5017068;28;20100;-54
2021/11/29 03:02:00;;;;;;;20.55;6.90;;;0.60;99.90;;;;;;5022525;28;20124;-52
2021/11/29 03:04:28;;;;;;;20.40;6.22;;;0.60;99.90;;;;;;5019208;28;20047;-59
2021/11/29 03:06:54;;;;;;;8.25;4.72;;;0.60;99.90;;;;;;5026508;28;20045;-57
2021/11/29 03:09:20;;;;;;;12.73;5.57;;;0.60;99.90;;;;;;5025682;28;20037;-55
2021/11/29 03:11:47;;;;;;;10.60;5.20;;;0.60;99.90;;;;;;5022625;28;20040;-59
2021/11/29 03:14:13;;;;;;;16.70;6.72;;;0.60;99.90;;;;;;5017918;28;20080;-59
2021/11/29 03:16:39;;;;;;;15.65;6.53;;;0.60;99.90;;;;;;5024807;28;20057;-54
2021/11/29 03:19:05;;;;;;;24.60;6.47;;;0.60;99.90;;;;;;5019115;28;20679;-59
2021/11/29 03:21:31;;;;;;;15.77;5.70;;;0.60;99.90;;;;;;5023169;28;20065;-58
2021/11/29 03:24:00;;;;;;;18.65;5.47;;;0.50;99.90;;;;;;5014639;28;20120;-58
2021/11/29 03:26:27;;;;;;;15.18;5.63;;;0.50;99.90;;;;;;5013834;28;20056;-57
2021/11/29 03:29:03;;;;;;;14.25;6.07;;;0.40;99.90;;;;;;5020696;28;20096;-56
2021/11/29 03:31:32;;;;;;;10.60;5.00;;;0.40;99.90;;;;;;5013152;28;20427;-59
2021/11/29 03:33:59;;;;;;;16.27;4.90;;;0.30;99.90;;;;;;5021369;28;20038;-58
2021/11/29 03:36:26;;;;;;;15.85;5.28;;;0.30;99.90;;;;;;5022357;28;20076;-59
2021/11/29 03:38:52;;;;;;;11.68;5.40;;;0.30;99.90;;;;;;5021612;28;20084;-58
2021/11/29 03:41:18;;;;;;;10.27;5.38;;;0.20;99.90;;;;;;5024984;28;20069;-57
2021/11/29 03:43:44;;;;;;;19.58;6.03;;;0.20;99.90;;;;;;5018519;28;20041;-59
2021/11/29 03:46:10;;;;;;;14.90;5.45;;;0.10;99.90;;;;;;5022641;28;20048;-56
2021/11/29 03:48:36;;;;;;;10.98;5.13;;;0.10;99.90;;;;;;5018678;28;20511;-55
2021/11/29 03:51:02;;;;;;;17.27;5.05;;;0.00;99.90;;;;;;5025289;28;20060;-58
2021/11/29 03:53:27;;;;;;;16.52;5.72;;;0.00;99.90;;;;;;5019124;28;20509;-57
2021/11/29 03:55:53;;;;;;;11.02;4.50;;;-0.10;99.90;;;;;;5029501;28;20068;-53
2021/11/29 03:58:19;;;;;;;17.67;5.38;;;-0.10;99.90;;;;;;5019966;28;20033;-56
2021/11/29 04:00:44;;;;;;;14.40;5.10;;;-0.20;99.90;;;;;;5018907;28;20034;-56
2021/11/29 04:03:11;;;;;;;16.83;4.43;;;-0.20;99.90;;;;;;5016014;28;20568;-58
2021/11/29 04:05:36;;;;;;;19.70;4.85;;;-0.20;99.90;;;;;;5029142;28;20553;-58
2021/11/29 04:08:02;;;;;;;11.80;4.32;;;-0.20;99.90;;;;;;5021193;28;20048;-56
2021/11/29 04:10:28;;;;;;;12.65;4.30;;;-0.20;99.90;;;;;;5027572;28;20044;-59
2021/11/29 04:12:54;;;;;;;13.48;4.10;;;-0.30;99.90;;;;;;5020735;28;20049;-57
2021/11/29 04:15:20;;;;;;;13.43;4.82;;;-0.30;99.90;;;;;;5028040;28;20046;-56
2021/11/29 04:17:46;;;;;;;21.85;6.78;;;-0.30;99.90;;;;;;5021059;28;20052;-58
2021/11/29 04:20:15;;;;;;;15.43;4.47;;;-0.30;99.90;;;;;;5028104;28;20037;-56
2021/11/29 04:22:45;;;;;;;15.18;3.95;;;-0.30;99.90;;;;;;5012106;28;20066;-56
2021/11/29 04:25:17;;;;;;;18.67;4.28;;;-0.30;99.90;;;;;;5027143;28;20091;-56
2021/11/29 04:27:45;;;;;;;10.68;3.80;;;-0.30;99.90;;;;;;5015097;28;20528;-58
2021/11/29 04:30:16;;;;;;;11.80;4.22;;;-0.30;99.90;;;;;;5025835;28;20072;-53
2021/11/29 04:32:42;;;;;;;12.95;3.70;;;-0.30;99.90;;;;;;5019528;28;20640;-57
2021/11/29 04:35:08;;;;;;;18.55;4.32;;;-0.30;99.90;;;;;;5028646;28;20372;-54
2021/11/29 04:37:34;;;;;;;13.77;3.92;;;-0.30;99.90;;;;;;5021516;28;20056;-56
2021/11/29 04:40:00;;;;;;;13.30;3.97;;;-0.30;99.90;;;;;;5028846;28;20041;-52
2021/11/29 04:42:25;;;;;;;14.75;4.22;;;-0.30;99.90;;;;;;5014815;28;20541;-56
2021/11/29 04:44:51;;;;;;;11.15;3.75;;;-0.30;99.90;;;;;;5024028;28;20616;-55
2021/11/29 04:47:17;;;;;;;19.63;4.25;;;-0.20;99.90;;;;;;5015587;28;20099;-57
2021/11/29 04:49:42;;;;;;;13.25;3.60;;;-0.20;99.90;;;;;;5025351;28;20685;-52
2021/11/29 04:52:08;;;;;;;10.25;3.67;;;-0.20;99.90;;;;;;5023891;28;20111;-58
2021/11/29 04:54:34;;;;;;;10.18;4.00;;;-0.20;99.90;;;;;;5022530;28;20492;-58
2021/11/29 04:57:00;;;;;;;15.32;4.18;;;-0.20;99.90;;;;;;5024655;28;20098;-59
2021/11/29 04:59:25;;;;;;;18.70;4.65;;;-0.10;99.90;;;;;;5012934;28;20065;-55
2021/11/29 05:01:51;;;;;;;12.95;4.43;;;-0.10;99.90;;;;;;5013185;28;20525;-60
2021/11/29 05:04:17;;;;;;;10.05;4.18;;;-0.10;99.90;;;;;;5024153;28;20037;-51
2021/11/29 05:06:42;;;;;;;19.90;4.40;;;0.00;99.90;;;;;;5014555;28;20793;-56
2021/11/29 05:09:12;;;;;;;16.45;4.50;;;0.00;99.90;;;;;;5022242;28;20041;-57
2021/11/29 05:11:37;;;;;;;13.57;4.95;;;0.10;99.90;;;;;;5025644;28;20057;-55
2021/11/29 05:14:03;;;;;;;15.07;4.40;;;0.10;99.90;;;;;;5019945;28;20092;-56
2021/11/29 05:16:29;;;;;;;12.30;4.20;;;0.20;99.90;;;;;;5020504;28;20104;-58
2021/11/29 05:18:55;;;;;;;11.18;4.07;;;0.20;99.90;;;;;;5019494;28;20056;-56
2021/11/29 05:21:21;;;;;;;15.35;4.18;;;0.20;99.90;;;;;;5019094;28;20045;-55
2021/11/29 05:23:48;;;;;;;19.10;4.88;;;0.20;99.90;;;;;;5017557;28;20044;-57
2021/11/29 05:26:18;;;;;;;14.52;4.85;;;0.30;99.90;;;;;;5025211;28;20037;-57
2021/11/29 05:28:44;;;;;;;13.45;4.53;;;0.30;99.90;;;;;;5030681;28;20509;-59
2021/11/29 05:31:09;;;;;;;11.18;4.05;;;0.30;99.90;;;;;;5033997;28;20113;-59
2021/11/29 05:33:35;;;;;;;10.13;4.30;;;0.30;99.90;;;;;;5035572;28;20041;-59
2021/11/29 05:36:01;;;;;;;18.42;5.05;;;0.30;99.90;;;;;;5039406;28;20790;-57
2021/11/29 05:38:28;;;;;;;16.50;4.40;;;0.30;99.90;;;;;;5020491;28;20404;-58
2021/11/29 05:40:53;;;;;;;15.60;6.30;;;0.30;99.90;;;;;;5027808;28;20124;-58
2021/11/29 05:43:19;;;;;;;19.08;4.75;;;0.30;99.90;;;;;;5019826;28;20196;-59
2021/11/29 05:45:45;;;;;;;17.52;4.82;;;0.30;99.90;;;;;;5017478;28;20647;-59
2021/11/29 05:48:11;;;;;;;11.82;4.68;;;0.30;99.90;;;;;;5020107;28;20045;-60
2021/11/29 05:50:37;;;;;;;11.35;4.22;;;0.20;99.90;;;;;;5022005;28;20029;-60
2021/11/29 05:53:03;;;;;;;23.33;5.90;;;0.20;99.90;;;;;;5023171;28;20045;-62
2021/11/29 05:55:29;;;;;;;19.95;4.95;;;0.20;99.90;;;;;;5024190;28;20045;-56
2021/11/29 05:57:55;;;;;;;14.30;4.35;;;0.10;99.90;;;;;;5013797;28;20049;-58
2021/11/29 06:00:21;;;;;;;10.25;5.10;;;0.10;99.90;;;;;;5026121;28;20041;-56
2021/11/29 06:02:47;;;;;;;14.75;4.82;;;0.10;99.90;;;;;;5015668;28;20048;-58
2021/11/29 06:05:14;;;;;;;12.52;4.45;;;0.20;99.90;;;;;;5021894;28;20034;-59
2021/11/29 06:07:40;;;;;;;10.82;4.35;;;0.10;99.90;;;;;;5015175;28;20677;-58
2021/11/29 06:10:07;;;;;;;15.90;4.60;;;0.00;99.90;;;;;;5021961;28;20120;-59
2021/11/29 06:12:33;;;;;;;13.40;4.32;;;0.10;99.90;;;;;;5016922;28;20068;-58
2021/11/29 06:14:58;;;;;;;12.32;4.90;;;0.10;99.90;;;;;;5026688;28;20057;-60
2021/11/29 06:17:24;;;;;;;12.50;4.63;;;0.20;99.90;;;;;;5018730;28;20837;-59
2021/11/29 06:19:50;;;;;;;10.27;3.90;;;0.20;99.90;;;;;;5027258;28;20107;-59
2021/11/29 06:22:16;;;;;;;10.35;4.03;;;0.30;99.90;;;;;;5016022;28;20128;-59
2021/11/29 06:24:41;;;;;;;10.60;4.25;;;0.30;99.90;;;;;;5025899;28;20124;-58
2021/11/29 06:27:07;;;;;;;12.27;4.60;;;0.30;99.90;;;;;;5022731;28;20042;-59
2021/11/29 06:29:32;;;;;;;12.35;4.25;;;0.30;99.90;;;;;;5025793;28;20033;-58
2021/11/29 06:31:58;;;;;;;16.77;4.75;;;0.30;99.90;;;;;;5032311;28;20041;-59
2021/11/29 06:34:25;;;;;;;14.30;6.13;;;0.30;99.90;;;;;;5031636;28;20040;-58
2021/11/29 06:36:52;;;;;;;10.95;4.65;;;0.30;99.90;;;;;;5028699;28;20498;-57
2021/11/29 06:39:20;;;;;;;12.20;4.70;;;0.30;99.90;;;;;;5021283;28;20044;-59
2021/11/29 06:41:47;;;;;;;11.95;4.57;;;0.30;99.90;;;;;;5037518;28;20059;-59
2021/11/29 06:44:13;;;;;;;21.95;6.15;;;0.40;99.90;;;;;;5032936;28;20045;-57
2021/11/29 06:46:39;;;;;;;14.60;5.43;;;0.40;99.90;;;;;;5040655;28;20037;-59
2021/11/29 06:49:04;;;;;;;13.57;5.03;;;0.30;99.90;;;;;;5019193;28;20036;-59
2021/11/29 06:51:32;;;;;;;11.85;4.65;;;0.40;99.90;;;;;;5018799;28;20061;-60
2021/11/29 06:53:59;;;;;;;19.63;5.32;;;0.40;99.90;;;;;;5016499;28;20039;-57
2021/11/29 06:56:25;;;;;;;15.30;5.20;;;0.40;99.90;;;;;;5018965;28;20042;-60
2021/11/29 06:58:51;;;;;;;13.60;5.95;;;0.40;99.90;;;;;;5021594;28;20382;-61
2021/11/29 07:01:16;;;;;;;13.90;5.05;;;0.40;99.90;;;;;;5017059;28;20077;-60
2021/11/29 07:03:42;;;;;;;14.65;5.20;;;0.40;99.90;;;;;;5021983;28;20041;-61
2021/11/29 07:06:08;;;;;;;12.60;4.90;;;0.40;99.90;;;;;;5025972;28;20056;-58
2021/11/29 07:08:34;;;;;;;13.02;4.93;;;0.40;99.90;;;;;;5018570;28;20037;-55
2021/11/29 07:10:59;;;;;;;16.52;5.10;;;0.40;99.90;;;;;;5024951;28;20337;-57
2021/11/29 07:13:26;;;;;;;12.93;4.88;;;0.50;99.90;;;;;;5014394;28;20467;-58
2021/11/29 07:15:52;;;;;;;21.85;4.78;;;0.50;99.90;;;;;;5023149;28;20037;-60
2021/11/29 07:18:18;;;;;;;19.77;5.00;;;0.60;99.90;;;;;;5017960;28;20099;-59
2021/11/29 07:20:44;;;;;;;9.30;3.97;;;0.60;99.90;;;;;;5025918;28;20084;-60
2021/11/29 07:23:10;;;;;;;12.40;4.32;;;0.60;99.90;;;;;;5016968;28;20551;-59
2021/11/29 07:25:35;;;;;;;8.65;3.72;;;0.70;99.90;;;;;;5024706;28;20048;-56
2021/11/29 07:28:01;;;;;;;12.63;4.53;;;0.70;99.90;;;;;;5018133;28;20033;-57
2021/11/29 07:30:28;;;;;;;11.75;4.50;;;0.70;99.90;;;;;;5027278;28;20065;-57
2021/11/29 07:32:54;;;;;;;8.68;4.40;;;0.80;99.90;;;;;;5015801;28;20041;-58
2021/11/29 07:35:26;;;;;;;15.57;6.38;;;0.70;99.90;;;;;;5024434;28;20038;-58
2021/11/29 07:37:52;;;;;;;13.35;7.20;;;0.70;99.90;;;;;;5019028;28;20040;-56
2021/11/29 07:40:18;;;;;;;9.00;4.72;;;0.70;99.90;;;;;;5027205;28;20037;-60
2021/11/29 07:42:44;;;;;;;9.07;4.45;;;0.80;99.90;;;;;;5020927;28;20092;-59
2021/11/29 07:45:14;;;;;;;12.48;5.10;;;0.80;99.90;;;;;;5025516;28;20500;-56
2021/11/29 07:47:42;;;;;;;13.75;5.20;;;0.70;99.90;;;;;;5018344;28;20037;-59
2021/11/29 07:50:11;;;;;;;13.15;7.45;;;0.70;99.90;;;;;;5026278;28;20124;-56
2021/11/29 07:52:37;;;;;;;31.77;14.45;;;0.70;99.90;;;;;;5019802;28;20060;-59
2021/11/29 07:55:07;;;;;;;17.80;8.27;;;0.70;99.90;;;;;;5029604;28;20086;-57
2021/11/29 07:57:37;;;;;;;26.33;11.60;;;0.70;99.90;;;;;;5018225;28;20141;-58
2021/11/29 08:00:06;;;;;;;16.13;6.47;;;0.80;99.90;;;;;;5021242;28;20049;-59
2021/11/29 08:02:32;;;;;;;14.05;7.45;;;0.80;99.90;;;;;;5007812;28;20038;-57
2021/11/29 08:04:58;;;;;;;29.95;12.52;;;0.80;99.90;;;;;;5009853;28;20057;-59
2021/11/29 08:07:24;;;;;;;15.68;8.23;;;0.80;99.90;;;;;;5009547;28;20081;-56
2021/11/29 08:09:49;;;;;;;13.60;6.38;;;0.80;99.90;;;;;;5009458;28;20061;-58
2021/11/29 08:12:15;;;;;;;13.93;5.78;;;0.80;99.90;;;;;;5005429;28;20053;-60
2021/11/29 08:14:41;;;;;;;8.60;5.05;;;0.70;99.90;;;;;;5004819;28;20489;-58
2021/11/29 08:17:06;;;;;;;9.70;4.85;;;0.70;99.90;;;;;;5038418;28;20045;-58
2021/11/29 08:19:32;;;;;;;15.95;6.13;;;0.80;99.90;;;;;;5028294;28;20063;-57
2021/11/29 08:21:58;;;;;;;9.55;4.93;;;0.80;99.90;;;;;;5047177;28;20032;-59
2021/11/29 08:24:23;;;;;;;10.35;4.70;;;0.90;99.90;;;;;;5027672;28;20041;-59
2021/11/29 08:26:49;;;;;;;10.10;4.75;;;0.90;99.90;;;;;;5025309;28;20128;-54
2021/11/29 08:29:15;;;;;;;13.95;4.93;;;0.90;99.90;;;;;;5033003;28;20409;-56
2021/11/29 08:31:41;;;;;;;9.43;4.85;;;0.90;99.90;;;;;;5040237;28;20128;-58
2021/11/29 08:34:07;;;;;;;8.48;5.13;;;0.90;99.90;;;;;;5019109;28;20201;-56
2021/11/29 08:36:34;;;;;;;11.30;5.38;;;1.00;99.90;;;;;;5020769;28;20460;-58
2021/11/29 08:39:01;;;;;;;15.70;5.75;;;1.00;99.90;;;;;;5020316;28;20044;-58
2021/11/29 08:41:27;;;;;;;9.32;5.43;;;1.00;99.90;;;;;;5024408;28;20186;-59
2021/11/29 08:43:53;;;;;;;12.20;7.38;;;1.00;99.90;;;;;;5023051;28;20106;-56
2021/11/29 08:46:19;;;;;;;9.18;5.53;;;1.00;99.90;;;;;;5044946;28;20056;-59
2021/11/29 08:48:45;;;;;;;12.52;6.95;;;1.20;99.90;;;;;;5024099;28;20172;-59
2021/11/29 08:51:11;;;;;;;47.65;27.20;;;1.30;99.90;;;;;;5029279;28;20124;-59
2021/11/29 08:53:38;;;;;;;21.77;12.20;;;1.40;99.90;;;;;;5026965;28;20042;-60
2021/11/29 08:56:05;;;;;;;18.10;10.05;;;1.40;99.90;;;;;;5029652;28;20073;-60
2021/11/29 08:58:31;;;;;;;22.17;12.48;;;1.50;99.90;;;;;;5020533;28;20068;-57
2021/11/29 09:00:57;;;;;;;13.40;7.78;;;1.60;99.90;;;;;;5001716;28;20041;-56
2021/11/29 09:03:23;;;;;;;11.10;6.97;;;1.60;99.90;;;;;;4998011;28;20073;-59
2021/11/29 09:05:50;;;;;;;9.13;5.50;;;1.60;99.90;;;;;;5007262;28;20038;-56
2021/11/29 09:08:15;;;;;;;8.15;5.57;;;1.60;99.90;;;;;;4997811;28;20033;-53
2021/11/29 09:10:43;;;;;;;7.72;5.07;;;1.60;99.90;;;;;;5003556;28;20042;-58
2021/11/29 09:13:09;;;;;;;4.30;3.67;;;1.60;99.90;;;;;;5001311;28;20525;-58
2021/11/29 09:15:35;;;;;;;6.53;4.68;;;1.60;99.90;;;;;;4985058;28;20041;-58
2021/11/29 09:18:01;;;;;;;5.03;4.30;;;1.60;99.90;;;;;;5004000;28;20034;-60
2021/11/29 09:20:28;;;;;;;6.43;4.60;;;1.60;99.90;;;;;;5002467;28;20042;-58
2021/11/29 09:22:56;;;;;;;5.30;4.05;;;1.50;99.90;;;;;;5002789;28;20034;-59
2021/11/29 09:25:21;;;;;;;8.13;4.45;;;1.50;99.90;;;;;;5006617;28;20046;-59
2021/11/29 09:27:47;;;;;;;8.35;4.47;;;1.60;99.90;;;;;;5008585;28;20050;-58
2021/11/29 09:30:17;;;;;;;4.63;3.45;;;1.60;99.90;;;;;;5006900;28;20045;-57
2021/11/29 09:32:43;;;;;;;5.75;3.80;;;1.70;99.90;;;;;;5001187;28;20034;-57
2021/11/29 09:35:12;;;;;;;4.95;3.45;;;1.80;99.90;;;;;;5005743;28;20141;-59
2021/11/29 09:37:40;;;;;;;7.53;4.35;;;1.90;99.90;;;;;;5006912;28;20042;-56
2021/11/29 09:40:20;;;;;;;5.65;4.15;;;2.00;99.90;;;;;;5007863;28;20409;-58
2021/11/29 09:42:46;;;;;;;4.82;3.90;;;1.90;99.90;;;;;;5013623;28;20117;-60
2021/11/29 09:45:13;;;;;;;5.95;4.70;;;1.90;99.90;;;;;;5000967;28;20184;-59
2021/11/29 09:47:40;;;;;;;4.55;3.67;;;1.90;99.90;;;;;;5006792;28;20087;-59
2021/11/29 09:50:09;;;;;;;9.07;3.83;;;1.90;99.90;;;;;;5005788;28;20124;-59
2021/11/29 09:52:35;;;;;;;11.60;6.72;;;1.80;99.90;;;;;;4981786;28;20037;-58
2021/11/29 09:55:01;;;;;;;7.47;4.03;;;1.80;99.90;;;;;;5002732;28;20398;-60
2021/11/29 09:57:27;;;;;;;22.20;11.52;;;1.80;99.90;;;;;;5006749;28;20064;-58
2021/11/29 09:59:53;;;;;;;56.75;23.33;;;1.80;99.90;;;;;;5005053;28;20042;-59
2021/11/29 10:02:19;;;;;;;10.48;5.80;;;1.80;99.90;;;;;;5002356;28;20045;-59
2021/11/29 10:04:48;;;;;;;6.28;4.60;;;1.80;99.90;;;;;;4999660;28;20509;-58
2021/11/29 10:07:26;;;;;;;5.10;3.65;;;1.80;99.90;;;;;;5007247;28;20042;-57
2021/11/29 10:09:55;;;;;;;6.07;4.20;;;1.90;99.90;;;;;;5006356;28;20041;-60
2021/11/29 10:12:21;;;;;;;5.47;4.30;;;1.90;99.90;;;;;;5003899;28;20037;-57
2021/11/29 10:15:24;;;;;;;7.00;4.95;;;1.80;99.90;;;;;;5000522;28;20426;-58
2021/11/29 10:17:58;;;;;;;4.93;3.63;;;1.80;99.90;;;;;;5003530;28;20042;-59
2021/11/29 10:20:27;;;;;;;4.80;3.28;;;1.90;99.90;;;;;;5000866;28;20502;-57
2021/11/29 10:23:04;;;;;;;3.88;3.10;;;1.90;99.90;;;;;;5005532;28;20029;-58
2021/11/29 10:25:31;;;;;;;4.68;3.22;;;1.90;99.90;;;;;;5007522;28;20041;-57
2021/11/29 10:27:59;;;;;;;3.80;3.20;;;1.90;99.90;;;;;;5004433;28;20118;-57
2021/11/29 10:30:28;;;;;;;4.07;3.50;;;2.00;99.90;;;;;;5002253;28;20034;-58
2021/11/29 10:32:54;;;;;;;5.07;2.88;;;2.00;99.90;;;;;;5020468;28;20037;-59
2021/11/29 10:35:33;;;;;;;3.85;3.03;;;1.90;99.90;;;;;;5022334;28;20033;-58
2021/11/29 10:38:00;;;;;;;9.18;3.40;;;1.80;99.90;;;;;;5026727;28;20045;-60
2021/11/29 10:40:27;;;;;;;5.65;3.35;;;1.70;99.90;;;;;;5026722;28;20080;-55
2021/11/29 10:42:52;;;;;;;3.60;2.75;;;1.70;99.90;;;;;;5022436;28;20065;-59
2021/11/29 10:45:24;;;;;;;4.50;3.25;;;1.70;99.90;;;;;;5025690;28;20592;-58
2021/11/29 10:47:52;;;;;;;6.10;3.75;;;1.70;99.90;;;;;;5000186;28;20112;-57
2021/11/29 10:50:24;;;;;;;3.63;2.95;;;1.60;99.90;;;;;;4999359;28;20034;-57
2021/11/29 10:52:49;;;;;;;4.32;3.35;;;1.70;99.90;;;;;;5001480;28;20057;-58
2021/11/29 10:55:15;;;;;;;4.07;3.33;;;1.80;99.90;;;;;;5000107;28;20048;-56
2021/11/29 10:57:47;;;;;;;5.38;3.38;;;1.80;99.90;;;;;;5006171;28;20080;-59
2021/11/29 11:00:17;;;;;;;5.25;3.83;;;1.80;99.90;;;;;;4976648;28;20045;-59
2021/11/29 11:03:00;;;;;;;6.35;3.80;;;1.70;99.90;;;;;;4988898;28;20561;-55
2021/11/29 11:05:26;;;;;;;6.13;4.53;;;1.70;99.90;;;;;;4997308;28;20809;-59
2021/11/29 11:07:52;;;;;;;8.70;4.55;;;1.70;99.90;;;;;;5005128;28;20145;-58
2021/11/29 11:10:19;;;;;;;5.45;3.83;;;1.70;99.90;;;;;;5005051;28;20109;-58
2021/11/29 11:12:46;;;;;;;4.38;3.70;;;1.70;99.90;;;;;;5007086;28;20042;-59
2021/11/29 11:15:18;;;;;;;5.88;3.75;;;1.70;99.90;;;;;;5006202;28;20045;-59
2021/11/29 11:17:52;;;;;;;4.88;3.90;;;1.70;99.90;;;;;;4996514;28;20065;-58
2021/11/29 11:20:17;;;;;;;5.60;3.63;;;1.70;99.90;;;;;;5000565;28;20045;-60
2021/11/29 11:22:49;;;;;;;4.82;3.65;;;1.60;99.90;;;;;;4993005;28;20045;-58
2021/11/29 11:25:25;;;;;;;5.22;3.80;;;1.60;99.90;;;;;;4999155;28;20619;-57
2021/11/29 11:27:58;;;;;;;5.60;3.83;;;1.60;99.90;;;;;;4991166;28;20045;-59
2021/11/29 11:30:26;;;;;;;4.13;3.17;;;1.60;99.90;;;;;;5007606;28;20056;-56
2021/11/29 11:33:02;;;;;;;4.15;3.28;;;1.60;99.90;;;;;;5020296;28;20525;-59
2021/11/29 11:35:34;;;;;;;4.97;3.45;;;1.60;99.90;;;;;;5017042;28;20041;-55
2021/11/29 11:38:11;;;;;;;5.10;3.88;;;1.70;99.90;;;;;;5010243;28;20046;-57
2021/11/29 11:40:39;;;;;;;5.60;4.22;;;1.70;99.90;;;;;;5023523;28;20117;-57
2021/11/29 11:43:07;;;;;;;5.10;3.55;;;1.60;99.90;;;;;;5017706;28;20095;-58
2021/11/29 11:45:36;;;;;;;6.38;4.47;;;1.60;99.90;;;;;;5018810;28;20827;-60
2021/11/29 11:48:02;;;;;;;5.82;4.25;;;1.50;99.90;;;;;;4986430;28;20054;-55
2021/11/29 11:50:37;;;;;;;5.90;4.10;;;1.50;99.90;;;;;;5002909;28;20624;-57
2021/11/29 11:53:05;;;;;;;5.25;3.75;;;1.50;99.90;;;;;;4986123;28;20046;-58
2021/11/29 11:55:35;;;;;;;7.10;4.95;;;1.50;99.90;;;;;;5002859;28;20502;-58
2021/11/29 11:58:10;;;;;;;6.38;4.50;;;1.40;99.90;;;;;;4997879;28;20038;-58
2021/11/29 12:00:42;;;;;;;7.10;5.00;;;1.40;99.90;;;;;;5004993;28;20113;-58
2021/11/29 12:03:15;;;;;;;7.57;5.28;;;1.40;99.90;;;;;;4999522;28;20042;-61
2021/11/29 12:05:52;;;;;;;8.27;4.85;;;1.50;99.90;;;;;;5005058;28;20088;-59
2021/11/29 12:08:34;;;;;;;8.52;4.55;;;1.40;99.90;;;;;;4998906;28;20034;-61
2021/11/29 12:11:05;;;;;;;8.95;5.45;;;1.40;99.90;;;;;;5015263;28;20039;-57
2021/11/29 12:13:42;;;;;;;7.35;4.95;;;1.50;99.90;;;;;;5001695;28;20060;-57
2021/11/29 12:16:10;;;;;;;7.85;4.97;;;1.60;99.90;;;;;;5004670;28;20034;-57
2021/11/29 12:18:41;;;;;;;7.72;4.57;;;1.50;99.90;;;;;;5001155;28;20045;-56
2021/11/29 12:21:23;;;;;;;6.95;4.57;;;1.50;99.90;;;;;;5007334;28;20906;-60
2021/11/29 12:24:13;;;;;;;7.38;4.63;;;1.50;99.90;;;;;;5002886;28;20041;-61
2021/11/29 12:26:48;;;;;;;6.57;4.13;;;1.40;99.90;;;;;;4999249;28;20053;-60
2021/11/29 12:29:22;;;;;;;6.45;4.30;;;1.50;99.90;;;;;;5003146;28;20045;-59
2021/11/29 12:32:06;;;;;;;6.90;4.80;;;1.50;99.90;;;;;;5020489;28;20072;-58
2021/11/29 12:34:44;;;;;;;6.95;4.47;;;1.50;99.90;;;;;;5028343;28;20497;-59
2021/11/29 12:37:14;;;;;;;6.65;3.80;;;1.50;99.90;;;;;;5028411;28;20100;-57
2021/11/29 12:39:45;;;;;;;5.50;3.58;;;1.60;99.90;;;;;;5022998;28;20063;-56
2021/11/29 12:42:22;;;;;;;4.40;2.80;;;1.50;99.90;;;;;;5023227;28;20034;-59
2021/11/29 12:45:00;;;;;;;5.60;3.55;;;1.40;99.90;;;;;;5024514;28;20029;-59
2021/11/29 12:47:32;;;;;;;5.65;3.55;;;1.40;99.90;;;;;;5006987;28;20046;-60
2021/11/29 12:50:01;;;;;;;4.45;3.15;;;1.30;99.90;;;;;;5008548;28;20065;-56
2021/11/29 12:52:27;;;;;;;7.03;3.33;;;1.30;99.90;;;;;;5003960;28;20044;-58